createdAt,value
2019-05-16T00:00:08.374Z,38.90
2019-05-16T00:01:09.186Z,39.43
2019-05-16T00:02:08.240Z,38.92
2019-05-16T00:03:08.034Z,39.15
2019-05-16T00:04:08.762Z,39.13
2019-05-16T00:05:08.383Z,39.13
2019-05-16T00:06:08.450Z,39.03
2019-05-16T00:07:08.064Z,39.23
2019-05-16T00:08:11.901Z,39.03
2019-05-16T00:09:08.027Z,38.92
2019-05-16T00:10:08.355Z,39.13
2019-05-16T00:11:08.453Z,38.90
2019-05-16T00:12:08.585Z,39.13
2019-05-16T00:13:08.494Z,39.33
2019-05-16T00:14:08.269Z,38.51
2019-05-16T00:15:08.733Z,38.51
2019-05-16T00:16:07.980Z,38.62
2019-05-16T00:17:08.367Z,38.92
2019-05-16T00:18:08.589Z,39.03
2019-05-16T00:19:08.577Z,38.92
2019-05-16T00:20:08.959Z,39.23
2019-05-16T00:21:08.547Z,39.45
2019-05-16T00:22:08.547Z,48.71
2019-05-16T00:23:07.898Z,50.52
2019-05-16T00:24:08.248Z,40.23
2019-05-16T00:25:08.483Z,38.90
2019-05-16T00:26:07.892Z,39.01
2019-05-16T00:27:08.322Z,38.80
2019-05-16T00:28:06.229Z,39.21
2019-05-16T00:29:08.011Z,39.21
2019-05-16T00:30:08.611Z,39.01
2019-05-16T00:31:08.428Z,39.03
2019-05-16T00:32:08.424Z,38.90
2019-05-16T00:33:08.341Z,38.51
2019-05-16T00:34:06.164Z,39.31
2019-05-16T00:35:06.125Z,38.70
2019-05-16T00:36:08.939Z,38.90
2019-05-16T00:37:06.095Z,39.84
2019-05-16T00:38:08.676Z,39.74
2019-05-16T00:39:08.218Z,39.51
2019-05-16T00:40:08.066Z,39.33
2019-05-16T00:41:08.338Z,39.23
2019-05-16T00:42:06.041Z,39.74
2019-05-16T00:43:08.028Z,39.33
2019-05-16T00:44:08.237Z,40.66
2019-05-16T00:45:06.034Z,40.25
2019-05-16T00:46:08.072Z,39.33
2019-05-16T00:47:08.485Z,40.25
2019-05-16T00:48:05.969Z,40.14
2019-05-16T00:49:08.127Z,40.23
2019-05-16T00:50:05.958Z,40.86
2019-05-16T00:51:07.811Z,40.76
2019-05-16T00:52:07.781Z,40.25
2019-05-16T00:53:05.913Z,40.25
2019-05-16T00:54:08.077Z,40.25
2019-05-16T00:55:05.889Z,39.23
2019-05-16T00:56:07.881Z,40.66
2019-05-16T00:57:08.336Z,39.33
2019-05-16T00:58:05.856Z,39.23
2019-05-16T00:59:07.791Z,39.13
2019-05-16T01:00:08.124Z,39.35
2019-05-16T01:01:08.329Z,39.25
2019-05-16T01:02:05.816Z,40.06
2019-05-16T01:03:08.004Z,40.25
2019-05-16T01:04:07.890Z,40.57
2019-05-16T01:05:08.279Z,41.06
2019-05-16T01:06:18.421Z,40.96
2019-05-16T01:07:08.213Z,40.76
2019-05-16T01:08:07.747Z,42.21
2019-05-16T01:09:05.764Z,41.28
2019-05-16T01:10:05.725Z,40.96
2019-05-16T01:11:07.772Z,41.57
2019-05-16T01:12:05.711Z,41.49
2019-05-16T01:13:07.854Z,42.10
2019-05-16T01:14:05.709Z,41.80
2019-05-16T01:15:07.664Z,42.51
2019-05-16T01:16:05.658Z,42.30
2019-05-16T01:17:05.646Z,42.51
2019-05-16T01:18:07.849Z,42.51
2019-05-16T01:19:05.661Z,42.10
2019-05-16T01:20:05.649Z,42.51
2019-05-16T01:21:07.698Z,42.69
2019-05-16T01:22:08.152Z,42.61
2019-05-16T01:23:05.582Z,42.41
2019-05-16T01:24:07.942Z,43.12
2019-05-16T01:25:05.916Z,43.53
2019-05-16T01:26:07.817Z,43.63
2019-05-16T01:27:05.542Z,42.92
2019-05-16T01:28:05.528Z,43.63
2019-05-16T01:29:05.520Z,43.12
2019-05-16T01:30:05.550Z,43.73
2019-05-16T01:31:05.497Z,43.63
2019-05-16T01:32:05.483Z,43.63
2019-05-16T01:33:05.471Z,43.02
2019-05-16T01:34:07.666Z,43.12
2019-05-16T01:35:05.489Z,43.32
2019-05-16T01:36:05.440Z,44.34
2019-05-16T01:37:05.425Z,44.55
2019-05-16T01:38:05.415Z,44.55
2019-05-16T01:39:07.801Z,44.45
2019-05-16T01:40:05.431Z,44.55
2019-05-16T01:41:05.382Z,44.55
2019-05-16T01:42:05.378Z,44.55
2019-05-16T01:43:05.367Z,44.73
2019-05-16T01:44:07.700Z,44.93
2019-05-16T01:45:05.364Z,44.83
2019-05-16T01:46:05.325Z,44.43
2019-05-16T01:48:08.256Z,45.24
2019-05-16T01:49:05.296Z,45.34
2019-05-16T01:50:05.313Z,45.34
2019-05-16T01:51:07.616Z,44.55
2019-05-16T01:52:05.267Z,45.04
2019-05-16T01:53:05.248Z,44.93
2019-05-16T01:54:05.240Z,45.34
2019-05-16T01:55:05.248Z,46.15
2019-05-16T01:56:05.224Z,45.65
2019-05-16T01:57:05.201Z,46.28
2019-05-16T01:58:05.193Z,46.59
2019-05-16T01:59:05.181Z,46.59
2019-05-16T02:00:05.212Z,46.48
2019-05-16T02:01:12.214Z,46.61
2019-05-16T02:02:08.195Z,46.28
2019-05-16T02:03:05.151Z,46.08
2019-05-16T02:04:05.136Z,46.28
2019-05-16T02:05:05.146Z,46.18
2019-05-16T02:06:05.108Z,46.26
2019-05-16T02:07:05.096Z,46.36
2019-05-16T02:08:05.087Z,46.38
2019-05-16T02:09:05.071Z,46.18
2019-05-16T02:10:05.088Z,46.18
2019-05-16T02:11:05.052Z,46.08
2019-05-16T02:12:05.039Z,46.08
2019-05-16T02:13:05.023Z,46.18
2019-05-16T02:14:05.015Z,46.28
2019-05-16T02:15:05.039Z,46.48
2019-05-16T02:16:05.018Z,45.98
2019-05-16T02:17:04.982Z,46.08
2019-05-16T02:18:04.973Z,45.67
2019-05-16T02:19:04.961Z,46.79
2019-05-16T02:20:04.969Z,45.89
2019-05-16T02:21:04.973Z,45.18
2019-05-16T02:22:04.939Z,46.30
2019-05-16T02:23:04.913Z,45.08
2019-05-16T02:24:04.900Z,44.67
2019-05-16T02:25:04.897Z,44.57
2019-05-16T02:26:04.904Z,44.57
2019-05-16T02:27:04.868Z,43.85
2019-05-16T02:28:04.864Z,44.67
2019-05-16T02:29:04.847Z,44.38
2019-05-16T02:30:04.838Z,44.46
2019-05-16T02:31:04.852Z,44.57
2019-05-16T02:32:04.831Z,44.69
2019-05-16T02:33:04.805Z,44.16
2019-05-16T02:34:05.177Z,44.08
2019-05-16T02:35:04.790Z,44.59
2019-05-16T02:36:04.820Z,45.10
2019-05-16T02:37:24.222Z,45.00
2019-05-16T02:38:05.753Z,44.69
2019-05-16T02:39:04.742Z,44.79
2019-05-16T02:40:04.755Z,44.59
2019-05-16T02:41:04.740Z,44.79
2019-05-16T02:42:04.720Z,44.59
2019-05-16T02:43:04.701Z,44.31
2019-05-16T02:44:04.767Z,44.61
2019-05-16T02:45:04.673Z,45.02
2019-05-16T02:46:04.792Z,44.41
2019-05-16T02:47:04.681Z,44.71
2019-05-16T02:48:04.636Z,44.61
2019-05-16T02:49:04.631Z,45.22
2019-05-16T02:50:04.614Z,46.14
2019-05-16T02:51:04.608Z,45.12
2019-05-16T02:52:04.620Z,45.32
2019-05-16T02:53:04.586Z,45.53
2019-05-16T02:54:04.569Z,45.22
2019-05-16T02:55:04.559Z,45.35
2019-05-16T02:56:04.550Z,45.45
2019-05-16T02:57:04.578Z,45.76
2019-05-16T02:58:04.525Z,45.94
2019-05-16T02:59:04.525Z,45.04
2019-05-16T03:00:04.504Z,47.08
2019-05-16T03:01:04.493Z,46.25
2019-05-16T03:02:04.514Z,46.06
2019-05-16T03:03:04.474Z,45.02
2019-05-16T03:04:04.464Z,45.02
2019-05-16T03:05:04.455Z,44.92
2019-05-16T03:06:04.445Z,45.02
2019-05-16T03:07:04.452Z,44.92
2019-05-16T03:08:04.424Z,45.14
2019-05-16T03:09:05.375Z,44.53
2019-05-16T03:10:04.408Z,44.94
2019-05-16T03:11:04.389Z,45.02
2019-05-16T03:12:04.429Z,45.12
2019-05-16T03:13:04.359Z,45.14
2019-05-16T03:14:04.351Z,45.14
2019-05-16T03:15:04.348Z,45.02
2019-05-16T03:16:04.353Z,44.81
2019-05-16T03:17:04.348Z,45.04
2019-05-16T03:18:04.770Z,45.25
2019-05-16T03:19:04.292Z,45.35
2019-05-16T03:20:04.280Z,44.84
2019-05-16T03:21:04.280Z,45.35
2019-05-16T03:22:04.306Z,44.85
2019-05-16T03:23:04.268Z,45.14
2019-05-16T03:24:04.239Z,45.47
2019-05-16T03:25:04.232Z,45.06
2019-05-16T03:26:04.220Z,46.19
2019-05-16T03:27:04.245Z,45.88
2019-05-16T03:28:04.229Z,45.88
2019-05-16T03:29:04.192Z,45.88
2019-05-16T03:30:04.177Z,45.86
2019-05-16T03:31:05.766Z,46.19
2019-05-16T03:32:04.186Z,46.47
2019-05-16T03:33:05.612Z,46.39
2019-05-16T03:34:07.331Z,46.49
2019-05-16T03:35:05.701Z,46.39
2019-05-16T03:36:05.113Z,46.39
2019-05-16T03:37:05.069Z,46.49
2019-05-16T03:38:05.645Z,46.29
2019-05-16T03:39:04.067Z,46.29
2019-05-16T03:40:04.057Z,46.49
2019-05-16T03:41:04.053Z,46.19
2019-05-16T03:42:04.038Z,46.70
2019-05-16T03:43:04.175Z,46.70
2019-05-16T03:44:04.011Z,46.90
2019-05-16T03:45:04.002Z,47.41
2019-05-16T03:46:03.990Z,47.00
2019-05-16T03:47:03.982Z,46.98
2019-05-16T03:48:03.997Z,46.19
2019-05-16T03:49:03.960Z,46.49
2019-05-16T03:50:03.956Z,47.20
2019-05-16T03:51:03.932Z,46.49
2019-05-16T03:52:03.927Z,46.70
2019-05-16T03:53:03.990Z,46.90
2019-05-16T03:54:03.899Z,47.29
2019-05-16T03:55:03.902Z,47.00
2019-05-16T03:56:03.922Z,47.00
2019-05-16T03:57:03.876Z,47.20
2019-05-16T03:58:03.892Z,47.20
2019-05-16T03:59:03.844Z,47.31
2019-05-16T04:00:03.843Z,47.52
2019-05-16T04:01:03.840Z,47.72
2019-05-16T04:02:03.825Z,47.52
2019-05-16T04:03:03.842Z,47.11
2019-05-16T04:04:03.787Z,47.31
2019-05-16T04:05:03.778Z,47.61
2019-05-16T04:06:03.771Z,47.82
2019-05-16T04:07:03.757Z,47.31
2019-05-16T04:08:14.859Z,47.82
2019-05-16T04:09:04.760Z,48.33
2019-05-16T04:10:03.723Z,48.33
2019-05-16T04:11:03.712Z,48.02
2019-05-16T04:12:03.710Z,47.94
2019-05-16T04:13:03.689Z,48.05
2019-05-16T04:14:03.728Z,48.56
2019-05-16T04:15:03.666Z,49.07
2019-05-16T04:16:03.661Z,48.43
2019-05-16T04:17:03.657Z,49.17
2019-05-16T04:18:03.665Z,48.97
2019-05-16T04:19:03.644Z,48.97
2019-05-16T04:20:03.610Z,49.27
2019-05-16T04:21:03.601Z,49.58
2019-05-16T04:22:03.611Z,49.66
2019-05-16T04:23:03.579Z,49.68
2019-05-16T04:24:03.603Z,49.38
2019-05-16T04:25:03.553Z,49.46
2019-05-16T04:26:03.550Z,49.17
2019-05-16T04:27:03.539Z,49.15
2019-05-16T04:28:03.524Z,49.27
2019-05-16T04:29:03.547Z,49.35
2019-05-16T04:30:03.546Z,49.68
2019-05-16T04:31:03.491Z,49.15
2019-05-16T04:32:03.474Z,49.66
2019-05-16T04:33:03.476Z,49.48
2019-05-16T04:34:03.492Z,49.58
2019-05-16T04:35:03.447Z,49.25
2019-05-16T04:36:03.431Z,49.89
2019-05-16T04:37:03.431Z,49.99
2019-05-16T04:38:03.411Z,49.99
2019-05-16T04:39:03.413Z,49.89
2019-05-16T04:40:03.419Z,50.60
2019-05-16T04:41:03.376Z,50.81
2019-05-16T04:42:03.374Z,50.81
2019-05-16T04:43:03.354Z,51.12
2019-05-16T04:44:04.872Z,51.12
2019-05-16T04:45:03.351Z,51.12
2019-05-16T04:46:03.326Z,50.78
2019-05-16T04:47:03.313Z,51.01
2019-05-16T04:48:03.318Z,51.21
2019-05-16T04:49:03.287Z,51.12
2019-05-16T04:50:03.314Z,51.62
2019-05-16T04:51:03.275Z,51.40
2019-05-16T04:52:03.260Z,52.24
2019-05-16T04:53:03.246Z,51.53
2019-05-16T04:54:06.800Z,51.81
2019-05-16T04:55:03.250Z,51.93
2019-05-16T04:56:03.213Z,51.62
2019-05-16T04:57:03.205Z,51.42
2019-05-16T04:58:03.189Z,51.93
2019-05-16T04:59:03.177Z,51.62
2019-05-16T05:00:03.203Z,51.93
2019-05-16T05:01:03.154Z,51.91
2019-05-16T05:02:03.144Z,52.24
2019-05-16T05:03:03.141Z,52.14
2019-05-16T05:04:10.851Z,51.73
2019-05-16T05:05:04.141Z,51.91
2019-05-16T05:06:03.113Z,52.03
2019-05-16T05:07:03.092Z,51.93
2019-05-16T05:08:03.086Z,53.06
2019-05-16T05:09:03.692Z,52.44
2019-05-16T05:10:03.099Z,51.93
2019-05-16T05:11:03.070Z,52.34
2019-05-16T05:12:04.524Z,52.24
2019-05-16T05:13:03.031Z,52.75
2019-05-16T05:14:03.017Z,52.24
2019-05-16T05:15:03.026Z,52.85
2019-05-16T05:16:03.016Z,53.26
2019-05-16T05:17:05.367Z,52.72
2019-05-16T05:18:02.963Z,52.24
2019-05-16T05:19:02.949Z,52.52
2019-05-16T05:20:02.959Z,53.13
2019-05-16T05:21:03.047Z,53.54
2019-05-16T05:22:02.927Z,53.13
2019-05-16T05:23:02.910Z,53.85
2019-05-16T05:24:02.889Z,53.23
2019-05-16T05:25:02.878Z,52.83
2019-05-16T05:26:02.892Z,52.11
2019-05-16T05:27:02.862Z,53.34
2019-05-16T05:28:02.859Z,53.34
2019-05-16T05:29:02.837Z,53.03
2019-05-16T05:30:02.826Z,53.13
2019-05-16T05:31:02.852Z,52.32
2019-05-16T05:32:04.925Z,52.11
2019-05-16T05:33:02.794Z,53.13
2019-05-16T05:34:02.780Z,53.34
2019-05-16T05:35:02.773Z,53.34
2019-05-16T05:36:02.781Z,52.22
2019-05-16T05:37:02.777Z,52.29
2019-05-16T05:38:02.740Z,52.52
2019-05-16T05:39:11.564Z,51.91
2019-05-16T05:40:03.708Z,51.91
2019-05-16T05:41:02.730Z,52.62
2019-05-16T05:42:02.687Z,52.29
2019-05-16T05:43:02.724Z,52.32
2019-05-16T05:44:02.670Z,53.23
2019-05-16T05:45:02.657Z,53.01
2019-05-16T05:46:02.671Z,52.70
2019-05-16T05:47:02.638Z,51.89
2019-05-16T05:48:02.634Z,52.22
2019-05-16T05:49:02.612Z,52.09
2019-05-16T05:50:02.601Z,52.62
2019-05-16T05:51:02.622Z,52.19
2019-05-16T05:52:02.578Z,52.29
2019-05-16T05:53:02.568Z,52.19
2019-05-16T05:54:02.560Z,52.19
2019-05-16T05:55:02.546Z,52.91
2019-05-16T05:56:02.560Z,52.60
2019-05-16T05:57:02.520Z,52.19
2019-05-16T05:58:02.519Z,52.72
2019-05-16T05:59:02.500Z,52.70
2019-05-16T06:00:02.494Z,52.52
2019-05-16T06:01:02.499Z,52.32
2019-05-16T06:02:02.480Z,52.22
2019-05-16T06:03:02.455Z,53.95
2019-05-16T06:04:02.437Z,53.13
2019-05-16T06:05:02.433Z,53.85
2019-05-16T06:06:02.453Z,53.34
2019-05-16T06:07:02.405Z,53.85
2019-05-16T06:08:02.405Z,53.85
2019-05-16T06:09:02.388Z,54.16
2019-05-16T06:10:02.374Z,53.95
2019-05-16T06:11:02.366Z,53.64
2019-05-16T06:12:02.376Z,53.72
2019-05-16T06:13:02.343Z,53.95
2019-05-16T06:14:02.329Z,53.85
2019-05-16T06:15:08.286Z,53.95
2019-05-16T06:16:03.332Z,53.95
2019-05-16T06:17:02.313Z,53.92
2019-05-16T06:18:02.293Z,53.44
2019-05-16T06:19:02.272Z,53.03
2019-05-16T06:20:02.262Z,53.95
2019-05-16T06:21:02.246Z,53.85
2019-05-16T06:22:02.313Z,53.85
2019-05-16T06:23:02.224Z,53.44
2019-05-16T06:24:02.211Z,53.75
2019-05-16T06:25:02.243Z,54.03
2019-05-16T06:26:02.194Z,53.85
2019-05-16T06:27:02.208Z,53.75
2019-05-16T06:28:02.189Z,54.18
2019-05-16T06:29:02.164Z,53.88
2019-05-16T06:30:02.147Z,53.77
2019-05-16T06:31:02.621Z,54.08
2019-05-16T06:32:02.156Z,53.88
2019-05-16T06:33:02.112Z,54.28
2019-05-16T06:34:07.762Z,53.77
2019-05-16T06:35:03.097Z,54.28
2019-05-16T06:36:02.077Z,54.49
2019-05-16T06:37:02.107Z,54.18
2019-05-16T06:38:02.058Z,54.08
2019-05-16T06:39:02.046Z,54.28
2019-05-16T06:40:02.039Z,54.90
2019-05-16T06:41:02.023Z,54.28
2019-05-16T06:42:02.053Z,54.16
2019-05-16T06:43:02.005Z,54.39
2019-05-16T06:44:01.992Z,54.46
2019-05-16T06:45:01.973Z,55.18
2019-05-16T06:46:01.971Z,54.97
2019-05-16T06:47:16.043Z,54.16
2019-05-16T06:48:02.946Z,54.26
2019-05-16T06:49:01.931Z,53.54
2019-05-16T06:50:01.955Z,54.26
2019-05-16T06:51:03.133Z,53.72
2019-05-16T06:52:01.936Z,54.46
2019-05-16T06:53:01.919Z,54.23
2019-05-16T06:54:02.022Z,54.33
2019-05-16T06:55:01.867Z,54.36
2019-05-16T06:56:01.888Z,53.54
2019-05-16T06:57:01.838Z,54.16
2019-05-16T06:58:01.874Z,54.46
2019-05-16T06:59:01.911Z,54.03
2019-05-16T07:00:01.809Z,54.05
2019-05-16T07:01:03.633Z,54.87
2019-05-16T07:02:01.861Z,54.44
2019-05-16T07:03:01.797Z,54.33
2019-05-16T07:04:01.762Z,54.26
2019-05-16T07:05:01.774Z,54.36
2019-05-16T07:06:01.750Z,54.97
2019-05-16T07:07:02.969Z,54.77
2019-05-16T07:08:01.738Z,55.08
2019-05-16T07:09:01.702Z,55.08
2019-05-16T07:10:04.627Z,54.85
2019-05-16T07:11:01.680Z,55.69
2019-05-16T07:12:01.677Z,55.15
2019-05-16T07:13:01.687Z,55.76
2019-05-16T07:14:01.661Z,54.95
2019-05-16T07:15:02.320Z,55.36
2019-05-16T07:16:01.625Z,55.54
2019-05-16T07:17:01.615Z,55.76
2019-05-16T07:18:01.605Z,55.05
2019-05-16T07:19:01.616Z,54.21
2019-05-16T07:20:01.588Z,55.66
2019-05-16T07:21:01.582Z,55.05
2019-05-16T07:22:01.556Z,55.36
2019-05-16T07:23:01.547Z,54.61
2019-05-16T07:24:01.557Z,55.13
2019-05-16T07:25:01.533Z,55.13
2019-05-16T07:26:01.522Z,54.41
2019-05-16T07:27:01.549Z,54.41
2019-05-16T07:28:01.492Z,55.13
2019-05-16T07:29:01.510Z,55.13
2019-05-16T07:30:01.583Z,54.31
2019-05-16T07:31:14.476Z,54.39
2019-05-16T07:32:02.446Z,54.39
2019-05-16T07:33:01.447Z,54.18
2019-05-16T07:34:01.449Z,54.18
2019-05-16T07:35:01.414Z,53.85
2019-05-16T07:36:01.434Z,53.67
2019-05-16T07:37:01.392Z,52.96
2019-05-16T07:38:01.396Z,53.47
2019-05-16T07:39:01.392Z,53.77
2019-05-16T07:40:16.316Z,53.96
2019-05-16T07:41:02.345Z,53.57
2019-05-16T07:42:01.343Z,53.77
2019-05-16T07:43:01.319Z,54.08
2019-05-16T07:44:01.342Z,53.57
2019-05-16T07:45:01.311Z,53.16
2019-05-16T07:46:01.293Z,53.57
2019-05-16T07:47:01.335Z,53.98
2019-05-16T07:48:01.262Z,53.98
2019-05-16T07:49:01.463Z,53.98
2019-05-16T07:50:01.249Z,54.18
2019-05-16T07:51:01.244Z,54.18
2019-05-16T07:52:01.223Z,53.98
2019-05-16T07:53:01.213Z,53.64
2019-05-16T07:54:01.239Z,53.44
2019-05-16T07:55:03.908Z,53.24
2019-05-16T07:56:01.182Z,53.34
2019-05-16T07:57:12.179Z,53.75
2019-05-16T07:58:02.152Z,53.75
2019-05-16T07:59:01.155Z,52.93
2019-05-16T08:00:01.173Z,53.34
2019-05-16T08:01:04.470Z,53.27
2019-05-16T08:02:02.116Z,53.55
2019-05-16T08:03:01.102Z,53.44
2019-05-16T08:04:01.133Z,53.44
2019-05-16T08:05:01.125Z,53.55
2019-05-16T08:06:01.712Z,54.24
2019-05-16T08:07:01.135Z,53.92
2019-05-16T08:08:01.044Z,53.70
2019-05-16T08:09:01.167Z,52.98
2019-05-16T08:10:01.064Z,52.37
2019-05-16T08:11:01.688Z,52.58
2019-05-16T08:12:01.844Z,51.76
2019-05-16T08:13:03.329Z,51.86
2019-05-16T08:14:01.140Z,51.97
2019-05-16T08:15:01.038Z,51.86
2019-05-16T08:16:01.455Z,52.45
2019-05-16T08:17:01.265Z,51.64
2019-05-16T08:18:03.140Z,51.86
2019-05-16T08:19:01.201Z,51.84
2019-05-16T08:20:00.930Z,51.74
2019-05-16T08:21:01.562Z,51.94
2019-05-16T08:22:01.448Z,51.23
2019-05-16T08:23:00.983Z,52.04
2019-05-16T08:24:07.104Z,51.64
2019-05-16T08:25:01.894Z,51.43
2019-05-16T08:26:01.407Z,51.25
2019-05-16T08:27:01.837Z,51.03
2019-05-16T08:28:01.327Z,51.84
2019-05-16T08:29:02.013Z,51.23
2019-05-16T08:31:01.817Z,51.64
2019-05-16T08:32:02.103Z,51.84
2019-05-16T08:34:01.753Z,51.94
2019-05-16T08:35:01.346Z,51.97
2019-05-16T08:36:07.158Z,51.84
2019-05-16T08:37:01.726Z,51.64
2019-05-16T08:38:01.240Z,52.15
2019-05-16T08:39:01.225Z,51.86
2019-05-16T08:40:00.688Z,51.66
2019-05-16T08:41:11.633Z,52.17
2019-05-16T08:42:08.048Z,52.45
2019-05-16T08:43:01.653Z,51.74
2019-05-16T08:44:01.317Z,52.15
2019-05-16T08:45:01.952Z,51.74
2019-05-16T08:46:01.170Z,51.64
2019-05-16T08:47:06.294Z,51.72
2019-05-16T08:48:01.601Z,51.92
2019-05-16T08:49:01.094Z,51.81
2019-05-16T08:50:00.862Z,51.72
2019-05-16T08:51:02.828Z,51.41
2019-05-16T08:52:01.532Z,51.18
2019-05-16T08:53:02.878Z,51.08
2019-05-16T08:54:01.534Z,50.57
2019-05-16T08:55:03.556Z,51.28
2019-05-16T08:56:02.622Z,50.67
2019-05-16T08:58:02.821Z,51.28
2019-05-16T08:59:02.677Z,51.08
2019-05-16T09:00:01.484Z,51.51
2019-05-16T09:01:02.317Z,50.78
2019-05-16T09:03:01.847Z,51.79
2019-05-16T09:04:01.510Z,50.85
2019-05-16T09:07:02.142Z,50.57
2019-05-16T09:08:01.032Z,50.75
2019-05-16T09:09:14.441Z,51.08
2019-05-16T09:10:01.370Z,51.89
2019-05-16T09:10:30.767Z,50.78
2019-05-16T09:10:30.921Z,51.89
2019-05-16T09:10:30.922Z,50.98
2019-05-16T09:10:34.455Z,50.47
2019-05-16T09:10:35.110Z,51.84
2019-05-16T09:10:41.850Z,51.23
2019-05-16T09:11:04.830Z,51.89
2019-05-16T09:12:01.368Z,50.85
2019-05-16T09:13:00.317Z,50.85
2019-05-16T09:14:00.301Z,50.98
2019-05-16T09:15:00.296Z,51.39
2019-05-16T09:16:00.303Z,51.18
2019-05-16T09:17:00.295Z,51.79
2019-05-16T09:18:00.264Z,51.89
2019-05-16T09:19:00.301Z,51.69
2019-05-16T09:20:00.241Z,61.46
2019-05-16T09:21:00.231Z,59.91
2019-05-16T09:22:00.249Z,59.75
2019-05-16T09:23:00.212Z,54.24
2019-05-16T09:24:00.197Z,51.70
2019-05-16T09:25:00.188Z,50.56
2019-05-16T09:26:00.173Z,49.84
2019-05-16T09:27:00.187Z,49.74
2019-05-16T09:28:00.150Z,50.15
2019-05-16T09:29:00.141Z,50.25
2019-05-16T09:30:00.147Z,50.56
2019-05-16T09:31:00.119Z,51.18
2019-05-16T09:32:08.905Z,50.58
2019-05-16T09:33:01.097Z,51.09
2019-05-16T09:34:00.086Z,51.29
2019-05-16T09:35:00.078Z,51.29
2019-05-16T09:36:00.064Z,50.88
2019-05-16T09:37:01.427Z,50.98
2019-05-16T09:38:00.036Z,51.29
2019-05-16T09:39:00.025Z,51.18
2019-05-16T09:40:00.012Z,51.09
2019-05-16T09:41:00.004Z,50.96
2019-05-16T09:42:00.017Z,51.09
2019-05-16T09:42:59.977Z,50.98
2019-05-16T09:43:59.963Z,50.98
2019-05-16T09:44:59.956Z,51.11
2019-05-16T09:46:07.627Z,52.03
2019-05-16T09:47:00.965Z,52.12
2019-05-16T09:47:59.926Z,51.62
2019-05-16T09:49:19.293Z,52.53
2019-05-16T09:50:00.913Z,52.03
2019-05-16T09:50:59.925Z,52.33
2019-05-16T09:51:59.903Z,51.82
2019-05-16T09:52:59.886Z,51.64
2019-05-16T09:53:59.863Z,52.33
2019-05-16T09:54:59.836Z,51.82
2019-05-16T09:55:59.833Z,53.17
2019-05-16T09:56:59.818Z,52.96
2019-05-16T09:57:59.834Z,53.06
2019-05-16T09:58:59.790Z,52.96
2019-05-16T09:59:59.843Z,52.05
2019-05-16T10:00:59.780Z,52.45
2019-05-16T10:01:59.756Z,51.72
2019-05-16T10:02:59.774Z,53.04
2019-05-16T10:03:59.738Z,53.04
2019-05-16T10:04:59.725Z,52.23
2019-05-16T10:05:59.715Z,52.00
2019-05-16T10:06:59.699Z,52.10
2019-05-16T10:07:59.727Z,51.90
2019-05-16T10:08:59.687Z,52.51
2019-05-16T10:09:59.674Z,51.67
2019-05-16T10:10:59.655Z,52.28
2019-05-16T10:12:11.929Z,51.59
2019-05-16T10:13:00.807Z,51.09
2019-05-16T10:13:59.628Z,51.18
2019-05-16T10:14:59.917Z,51.21
2019-05-16T10:15:59.603Z,51.72
2019-05-16T10:16:59.586Z,51.42
2019-05-16T10:17:59.614Z,51.75
2019-05-16T10:18:59.571Z,52.12
2019-05-16T10:20:00.087Z,52.15
2019-05-16T10:20:59.550Z,51.62
2019-05-16T10:22:00.334Z,52.03
2019-05-16T10:22:59.581Z,52.03
2019-05-16T10:23:59.541Z,51.95
2019-05-16T10:24:59.522Z,52.23
2019-05-16T10:25:59.485Z,52.23
2019-05-16T10:26:59.475Z,52.23
2019-05-16T10:27:59.473Z,51.72
2019-05-16T10:28:59.485Z,51.62
2019-05-16T10:30:01.068Z,51.72
2019-05-16T10:30:59.426Z,52.43
2019-05-16T10:31:59.422Z,51.62
2019-05-16T10:33:01.007Z,51.92
2019-05-16T10:33:59.425Z,51.72
2019-05-16T10:34:59.393Z,52.94
2019-05-16T10:35:59.409Z,51.95
2019-05-16T10:36:59.355Z,53.45
2019-05-16T10:37:59.345Z,52.66
2019-05-16T10:38:59.387Z,51.95
2019-05-16T10:39:59.998Z,51.95
2019-05-16T10:40:59.310Z,52.35
2019-05-16T10:41:59.299Z,51.84
2019-05-16T10:42:59.290Z,52.68
2019-05-16T10:43:59.299Z,52.96
2019-05-16T10:44:59.266Z,53.39
2019-05-16T10:45:59.251Z,52.86
2019-05-16T10:46:59.251Z,53.47
2019-05-16T10:47:59.244Z,53.09
2019-05-16T10:48:59.250Z,53.09
2019-05-16T10:49:59.227Z,52.78
2019-05-16T10:50:59.199Z,52.68
2019-05-16T10:51:59.190Z,52.89
2019-05-16T10:53:22.630Z,53.29
2019-05-16T10:54:08.898Z,53.90
2019-05-16T10:55:02.447Z,53.09
2019-05-16T10:55:59.160Z,53.50
2019-05-16T10:56:59.225Z,53.39
2019-05-16T10:57:59.121Z,53.59
2019-05-16T10:59:37.766Z,53.70
2019-05-16T11:00:09.116Z,53.19
2019-05-16T11:01:26.587Z,53.50
2019-05-16T11:02:00.074Z,52.81
2019-05-16T11:02:59.096Z,52.78
2019-05-16T11:03:59.078Z,53.52
2019-05-16T11:05:14.229Z,53.32
2019-05-16T11:06:05.018Z,53.42
2019-05-16T11:07:00.018Z,53.42
2019-05-16T11:07:59.046Z,53.72
2019-05-16T11:08:59.025Z,53.72
2019-05-16T11:10:03.286Z,53.63
2019-05-16T11:10:58.985Z,53.93
2019-05-16T11:11:58.976Z,54.03
2019-05-16T11:12:59.798Z,54.44
2019-05-16T11:13:58.978Z,54.03
2019-05-16T11:14:58.970Z,53.83
2019-05-16T11:15:59.162Z,54.00
2019-05-16T11:16:58.912Z,54.11
2019-05-16T11:18:00.155Z,54.94
2019-05-16T11:19:13.770Z,55.43
2019-05-16T11:19:59.895Z,54.21
2019-05-16T11:20:58.861Z,54.03
2019-05-16T11:21:58.852Z,54.61
2019-05-16T11:22:58.844Z,55.35
2019-05-16T11:23:58.834Z,54.94
2019-05-16T11:24:58.848Z,54.92
2019-05-16T11:25:58.806Z,54.41
2019-05-16T11:26:58.795Z,53.90
2019-05-16T11:27:58.782Z,53.50
2019-05-16T11:28:58.782Z,53.70
2019-05-16T11:29:58.793Z,54.11
2019-05-16T11:31:03.290Z,53.17
2019-05-16T11:31:58.738Z,54.18
2019-05-16T11:32:58.725Z,52.98
2019-05-16T11:33:58.716Z,53.59
2019-05-16T11:34:58.738Z,53.29
2019-05-16T11:35:58.696Z,53.70
2019-05-16T11:36:58.685Z,53.59
2019-05-16T11:37:58.683Z,53.19
2019-05-16T11:39:01.947Z,53.59
2019-05-16T11:39:58.650Z,53.09
2019-05-16T11:40:58.664Z,53.19
2019-05-16T11:41:58.622Z,53.59
2019-05-16T11:43:10.611Z,53.09
2019-05-16T11:43:59.629Z,53.70
2019-05-16T11:44:58.601Z,53.19
2019-05-16T11:45:58.611Z,52.78
2019-05-16T11:46:58.585Z,52.05
2019-05-16T11:47:58.560Z,52.05
2019-05-16T11:48:58.550Z,52.76
2019-05-16T11:49:58.554Z,52.86
2019-05-16T11:50:58.554Z,52.86
2019-05-16T11:51:58.519Z,52.84
2019-05-16T11:52:58.506Z,52.66
2019-05-16T11:53:59.971Z,51.62
2019-05-16T11:54:58.486Z,51.62
2019-05-16T11:56:01.606Z,51.72
2019-05-16T11:56:58.459Z,51.62
2019-05-16T11:57:58.454Z,51.70
2019-05-16T11:58:58.448Z,51.59
2019-05-16T11:59:58.422Z,51.98
2019-05-16T12:00:58.435Z,51.26
2019-05-16T12:01:58.404Z,50.76
2019-05-16T12:02:58.388Z,50.63
2019-05-16T12:03:58.376Z,50.63
2019-05-16T12:04:58.367Z,50.02
2019-05-16T12:06:59.466Z,49.49
2019-05-16T12:07:58.405Z,49.39
2019-05-16T12:08:58.342Z,49.29
2019-05-16T12:09:58.321Z,49.39
2019-05-16T12:10:58.332Z,49.59
2019-05-16T12:12:59.669Z,49.69
2019-05-16T12:13:58.269Z,49.82
2019-05-16T12:14:58.461Z,50.63
2019-05-16T12:15:58.263Z,50.73
2019-05-16T12:16:58.266Z,50.93
2019-05-16T12:18:03.918Z,51.54
2019-05-16T12:18:59.216Z,51.98
2019-05-16T12:19:58.194Z,51.44
2019-05-16T12:20:58.179Z,51.65
2019-05-16T12:21:58.207Z,51.77
2019-05-16T12:22:58.157Z,52.15
2019-05-16T12:23:58.149Z,51.65
2019-05-16T12:24:58.139Z,51.54
2019-05-16T12:26:00.149Z,51.85
2019-05-16T12:27:00.805Z,51.54
2019-05-16T12:27:58.111Z,52.46
2019-05-16T12:28:58.090Z,52.56
2019-05-16T12:29:59.016Z,52.25
2019-05-16T12:30:58.065Z,51.44
2019-05-16T12:32:02.574Z,52.25
2019-05-16T12:32:58.250Z,52.76
2019-05-16T12:33:59.711Z,52.38
2019-05-16T12:34:58.028Z,52.89
2019-05-16T12:35:58.016Z,52.58
2019-05-16T12:36:58.049Z,52.89
2019-05-16T12:37:57.988Z,53.70
2019-05-16T12:38:57.972Z,53.93
2019-05-16T12:39:57.966Z,53.72
2019-05-16T12:40:57.961Z,53.65
2019-05-16T12:41:59.643Z,53.45
2019-05-16T12:42:57.926Z,53.55
2019-05-16T12:43:58.085Z,53.96
2019-05-16T12:44:57.913Z,53.55
2019-05-16T12:45:57.891Z,53.34
2019-05-16T12:46:57.918Z,53.37
2019-05-16T12:47:57.869Z,53.88
2019-05-16T12:48:57.866Z,54.05
2019-05-16T12:49:57.853Z,54.57
2019-05-16T12:50:58.945Z,53.78
2019-05-16T12:51:57.856Z,53.57
2019-05-16T12:52:57.818Z,53.27
2019-05-16T12:53:57.806Z,54.79
2019-05-16T12:54:57.795Z,54.79